createdAt,value
2022-08-14T00:01:09.997Z,100.00
2022-08-14T00:03:38.557Z,100.00
2022-08-14T00:06:14.079Z,100.00
2022-08-14T00:08:52.576Z,100.00
2022-08-14T00:11:19.740Z,100.00
2022-08-14T00:13:52.451Z,100.00
2022-08-14T00:16:41.107Z,100.00
2022-08-14T00:19:21.176Z,100.00
2022-08-14T00:21:50.795Z,100.00
2022-08-14T00:24:28.636Z,100.00
2022-08-14T00:27:02.165Z,100.00
2022-08-14T00:29:39.857Z,100.00
2022-08-14T00:32:50.099Z,100.00
2022-08-14T00:34:53.693Z,99.72
2022-08-14T00:37:20.965Z,99.41
2022-08-14T00:39:47.516Z,98.40
2022-08-14T00:42:21.355Z,97.73
2022-08-14T00:45:09.930Z,97.08
2022-08-14T00:47:43.232Z,96.82
2022-08-14T00:50:16.707Z,96.27
2022-08-14T00:52:50.957Z,95.42
2022-08-14T00:55:19.940Z,95.05
2022-08-14T00:58:07.543Z,94.32
2022-08-14T01:00:37.354Z,93.68
2022-08-14T01:03:09.995Z,93.28
2022-08-14T01:05:50.953Z,93.30
2022-08-14T01:08:52.301Z,92.18
2022-08-14T01:11:07.868Z,91.58
2022-08-14T01:13:42.610Z,92.03
2022-08-14T01:16:15.112Z,91.43
2022-08-14T01:19:01.373Z,91.79
2022-08-14T01:21:34.881Z,92.30
2022-08-14T01:24:24.734Z,91.75
2022-08-14T01:27:00.131Z,91.80
2022-08-14T01:29:59.094Z,90.86
2022-08-14T01:32:22.888Z,91.52
2022-08-14T01:35:17.301Z,91.97
2022-08-14T01:37:44.510Z,92.28
2022-08-14T01:40:15.528Z,93.00
2022-08-14T01:42:46.881Z,93.16
2022-08-14T01:45:17.921Z,93.24
2022-08-14T01:47:52.582Z,92.48
2022-08-14T01:50:30.658Z,92.16
2022-08-14T01:53:01.238Z,90.29
2022-08-14T01:55:31.907Z,91.04
2022-08-14T01:58:18.524Z,91.06
2022-08-14T02:00:47.851Z,90.91
2022-08-14T02:03:16.114Z,91.44
2022-08-14T02:05:43.555Z,90.91
2022-08-14T02:08:10.662Z,91.43
2022-08-14T02:10:46.603Z,91.20
2022-08-14T02:13:15.984Z,91.43
2022-08-14T02:15:43.694Z,90.71
2022-08-14T02:18:10.559Z,91.06
2022-08-14T02:20:39.991Z,90.86
2022-08-14T02:23:08.186Z,91.08
2022-08-14T02:25:35.506Z,91.13
2022-08-14T02:28:25.075Z,91.20
2022-08-14T02:30:48.674Z,90.81
2022-08-14T02:33:19.573Z,91.53
2022-08-14T02:35:53.359Z,92.32
2022-08-14T02:38:30.005Z,92.71
2022-08-14T02:41:01.064Z,92.71
2022-08-14T02:43:36.584Z,92.62
2022-08-14T02:46:04.185Z,93.24
2022-08-14T02:49:04.970Z,93.52
2022-08-14T02:51:23.525Z,92.64
2022-08-14T02:53:51.857Z,92.59
2022-08-14T02:56:30.224Z,93.02
2022-08-14T02:59:08.480Z,93.58
2022-08-14T03:01:43.468Z,93.65
2022-08-14T03:04:20.176Z,93.80
2022-08-14T03:06:58.043Z,93.48
2022-08-14T03:10:26.437Z,93.90
2022-08-14T03:12:31.500Z,95.06
2022-08-14T03:15:03.207Z,94.98
2022-08-14T03:17:32.109Z,95.31
2022-08-14T03:20:11.105Z,94.83
2022-08-14T03:22:41.846Z,95.40
2022-08-14T03:25:10.629Z,94.61
2022-08-14T03:27:48.556Z,95.15
2022-08-14T03:30:38.906Z,95.25
2022-08-14T03:33:08.404Z,95.19
2022-08-14T03:35:39.850Z,95.09
2022-08-14T03:39:11.640Z,94.93
2022-08-14T03:40:56.774Z,95.02
2022-08-14T03:43:25.445Z,94.49
2022-08-14T03:45:55.435Z,95.22
2022-08-14T03:48:30.145Z,94.65
2022-08-14T03:50:58.049Z,94.62
2022-08-14T03:53:26.283Z,94.55
2022-08-14T03:55:56.108Z,94.42
2022-08-14T03:58:36.731Z,94.50
2022-08-14T04:01:06.466Z,94.45
2022-08-14T04:03:37.385Z,93.95
2022-08-14T04:06:04.995Z,93.99
2022-08-14T04:08:36.982Z,93.70
2022-08-14T04:11:08.011Z,94.07
2022-08-14T04:13:39.586Z,94.62
2022-08-14T04:16:12.647Z,94.21
2022-08-14T04:18:42.527Z,93.97
2022-08-14T04:21:10.492Z,93.69
2022-08-14T04:23:39.788Z,94.25
2022-08-14T04:26:14.232Z,93.62
2022-08-14T04:29:07.590Z,92.67
2022-08-14T04:33:10.489Z,93.36
2022-08-14T04:34:24.065Z,92.59
2022-08-14T04:37:12.807Z,92.32
2022-08-14T04:39:58.839Z,91.56
2022-08-14T04:42:47.272Z,91.52
2022-08-14T04:45:19.743Z,91.61
2022-08-14T04:48:05.557Z,91.56
2022-08-14T04:50:43.862Z,92.24
2022-08-14T04:53:13.880Z,92.24
2022-08-14T04:55:42.895Z,92.62
2022-08-14T04:58:21.951Z,92.66
2022-08-14T05:00:58.097Z,92.32
2022-08-14T05:03:27.629Z,91.48
2022-08-14T05:05:58.117Z,91.56
2022-08-14T05:08:32.155Z,91.41
2022-08-14T05:11:13.470Z,91.59
2022-08-14T05:14:33.065Z,91.66
2022-08-14T05:16:31.639Z,91.46
2022-08-14T05:19:17.602Z,90.98
2022-08-14T05:22:00.580Z,90.46
2022-08-14T05:24:31.668Z,89.94
2022-08-14T05:26:59.341Z,88.92
2022-08-14T05:29:26.387Z,88.95
2022-08-14T05:31:57.319Z,88.21
2022-08-14T05:34:32.052Z,87.37
2022-08-14T05:37:03.224Z,87.42
2022-08-14T05:39:31.136Z,87.19
2022-08-14T05:41:58.401Z,87.57
2022-08-14T05:44:29.589Z,86.92
2022-08-14T05:46:57.370Z,86.25
2022-08-14T05:49:32.681Z,85.98
2022-08-14T05:52:03.895Z,85.97
2022-08-14T05:54:36.539Z,85.99
2022-08-14T05:57:04.965Z,86.14
2022-08-14T05:59:38.657Z,85.86
2022-08-14T06:02:07.795Z,85.22
2022-08-14T06:04:36.906Z,84.70
2022-08-14T06:07:04.328Z,84.49
2022-08-14T06:09:35.524Z,83.30
2022-08-14T06:12:10.601Z,80.49
2022-08-14T06:14:38.889Z,74.81
2022-08-14T06:17:05.982Z,71.05
2022-08-14T06:19:33.096Z,70.32
2022-08-14T06:21:59.941Z,71.39
2022-08-14T06:24:27.604Z,76.26
2022-08-14T06:27:04.517Z,75.65
2022-08-14T06:29:34.959Z,70.69
2022-08-14T06:32:36.547Z,75.08
2022-08-14T06:35:10.769Z,75.42
2022-08-14T06:37:46.895Z,77.52
2022-08-14T06:40:27.183Z,78.53
2022-08-14T06:43:00.549Z,78.38
2022-08-14T06:45:31.387Z,81.38
2022-08-14T06:47:58.792Z,81.79
2022-08-14T06:50:28.713Z,80.37
2022-08-14T06:52:58.535Z,77.97
2022-08-14T06:55:28.106Z,70.02
2022-08-14T06:57:56.519Z,67.47
2022-08-14T07:00:30.972Z,69.19
2022-08-14T07:03:17.170Z,72.15
2022-08-14T07:05:55.650Z,74.49
2022-08-14T07:08:31.095Z,75.48
2022-08-14T07:11:04.232Z,73.56
2022-08-14T07:13:31.183Z,71.83
2022-08-14T07:15:58.929Z,69.46
2022-08-14T07:18:29.208Z,66.57
2022-08-14T07:20:57.462Z,64.81
2022-08-14T07:23:25.811Z,63.73
2022-08-14T07:25:55.355Z,64.66
2022-08-14T07:28:43.361Z,64.36
2022-08-14T07:31:12.283Z,63.13
2022-08-14T07:33:46.666Z,62.37
2022-08-14T07:36:27.274Z,57.08
2022-08-14T07:39:00.942Z,50.86
2022-08-14T07:41:31.282Z,47.45
2022-08-14T07:44:22.425Z,47.18
2022-08-14T07:46:47.936Z,47.26
2022-08-14T07:49:17.921Z,46.39
2022-08-14T07:51:45.323Z,48.22
2022-08-14T07:54:12.388Z,50.88
2022-08-14T07:56:47.510Z,52.52
2022-08-14T07:59:16.940Z,56.24
2022-08-14T08:01:51.171Z,56.26
2022-08-14T08:04:25.196Z,57.08
2022-08-14T08:06:53.758Z,57.36
2022-08-14T08:09:32.097Z,58.69
2022-08-14T08:12:05.062Z,58.63
2022-08-14T08:14:55.538Z,59.99
2022-08-14T08:17:25.616Z,59.65
2022-08-14T08:19:52.392Z,59.15
2022-08-14T08:22:21.280Z,59.04
2022-08-14T08:24:50.817Z,56.21
2022-08-14T08:27:19.930Z,57.54
2022-08-14T08:29:50.786Z,59.07
2022-08-14T08:32:18.507Z,59.53
2022-08-14T08:34:46.364Z,61.55
2022-08-14T08:37:14.751Z,61.92
2022-08-14T08:40:03.305Z,61.48
2022-08-14T08:42:38.250Z,64.11
2022-08-14T08:45:06.243Z,65.67
2022-08-14T08:47:40.409Z,65.64
2022-08-14T08:50:23.237Z,64.89
2022-08-14T08:53:02.049Z,65.12
2022-08-14T08:55:31.825Z,66.75
2022-08-14T08:58:05.441Z,66.75
2022-08-14T09:00:40.986Z,68.05
2022-08-14T09:03:12.307Z,67.92
2022-08-14T09:06:54.022Z,69.88
2022-08-14T09:08:55.728Z,70.44
2022-08-14T09:11:24.578Z,67.54
2022-08-14T09:13:52.645Z,68.40
2022-08-14T09:16:25.867Z,67.19
2022-08-14T09:18:53.932Z,66.94
2022-08-14T09:21:24.047Z,68.08
2022-08-14T09:24:29.325Z,67.45
2022-08-14T09:26:42.395Z,66.09
2022-08-14T09:29:11.471Z,63.87
2022-08-14T09:31:53.462Z,63.28
2022-08-14T09:34:27.961Z,61.65
2022-08-14T09:37:27.377Z,61.99
2022-08-14T09:40:20.939Z,63.33
2022-08-14T09:43:05.414Z,63.23
2022-08-14T09:45:40.280Z,64.29
2022-08-14T09:48:29.837Z,65.36
2022-08-14T09:54:17.921Z,67.47
2022-08-14T09:56:45.855Z,67.86
2022-08-14T09:59:16.167Z,68.20
2022-08-14T10:01:52.769Z,66.63
2022-08-14T10:04:33.745Z,66.87
2022-08-14T10:07:08.422Z,67.48
2022-08-14T10:10:00.023Z,67.83
2022-08-14T10:12:53.163Z,68.44
2022-08-14T10:15:25.951Z,68.90
2022-08-14T10:18:17.326Z,70.17
2022-08-14T10:21:01.038Z,69.49
2022-08-14T10:23:34.954Z,68.17
2022-08-14T10:26:07.240Z,67.52
2022-08-14T10:29:14.196Z,67.40
2022-08-14T10:31:40.187Z,69.39
2022-08-14T10:34:16.263Z,68.28
2022-08-14T10:36:48.094Z,66.66
2022-08-14T10:39:22.067Z,65.80
2022-08-14T10:41:53.786Z,64.92
2022-08-14T10:44:29.664Z,65.87
2022-08-14T10:47:41.474Z,66.45
2022-08-14T10:50:00.123Z,66.85
2022-08-14T10:52:33.891Z,66.01
2022-08-14T10:55:15.467Z,67.23
2022-08-14T10:57:57.495Z,64.90
2022-08-14T11:00:35.572Z,64.96
2022-08-14T11:03:15.741Z,63.85
2022-08-14T11:05:55.727Z,64.74
2022-08-14T11:08:35.445Z,64.74
2022-08-14T11:11:05.621Z,64.25
2022-08-14T11:13:34.932Z,63.29
2022-08-14T11:16:02.477Z,62.62
2022-08-14T11:18:40.197Z,62.60
2022-08-14T11:21:08.428Z,63.88
2022-08-14T11:23:39.882Z,63.42
2022-08-14T11:26:10.805Z,62.32
2022-08-14T11:28:48.144Z,59.40
2022-08-14T11:31:22.107Z,60.59
2022-08-14T11:33:58.192Z,59.55
2022-08-14T11:36:35.444Z,59.93
2022-08-14T11:39:34.495Z,59.74
2022-08-14T11:42:55.463Z,59.67
2022-08-14T11:45:11.148Z,58.62
2022-08-14T11:48:12.816Z,59.21
2022-08-14T11:50:37.630Z,60.15
2022-08-14T11:53:20.207Z,59.52
2022-08-14T11:55:46.955Z,59.06
2022-08-14T11:58:23.812Z,58.29
2022-08-14T12:00:53.881Z,58.35
2022-08-14T12:03:37.356Z,59.15
2022-08-14T12:06:27.851Z,59.71
2022-08-14T12:08:56.874Z,59.90
2022-08-14T12:11:44.105Z,60.54
2022-08-14T12:14:30.798Z,60.59
2022-08-14T12:17:11.751Z,60.36
2022-08-14T12:19:51.555Z,60.60
2022-08-14T12:22:33.953Z,60.88
2022-08-14T12:25:01.789Z,59.64
2022-08-14T12:27:59.226Z,57.58
2022-08-14T12:30:43.052Z,57.36
2022-08-14T12:33:35.331Z,56.62
2022-08-14T12:36:07.968Z,55.09
2022-08-14T12:38:43.712Z,56.77
2022-08-14T12:41:22.155Z,55.88
2022-08-14T12:44:01.905Z,55.28
2022-08-14T12:46:43.711Z,55.11
2022-08-14T12:49:16.419Z,52.86
2022-08-14T12:51:44.300Z,53.55
2022-08-14T12:54:27.052Z,53.98
2022-08-14T12:57:04.237Z,53.91
2022-08-14T12:59:37.279Z,54.27
2022-08-14T13:02:25.991Z,53.98
2022-08-14T13:04:55.951Z,54.44
2022-08-14T13:07:24.267Z,55.39
2022-08-14T13:10:00.165Z,54.78
2022-08-14T13:12:32.555Z,53.50
2022-08-14T13:15:18.211Z,52.57
2022-08-14T13:17:52.113Z,52.68
2022-08-14T13:20:26.564Z,51.99
2022-08-14T13:22:56.236Z,52.76
2022-08-14T13:25:25.926Z,52.18
2022-08-14T13:27:55.203Z,52.98
2022-08-14T13:30:24.966Z,51.60
2022-08-14T13:32:53.786Z,52.27
2022-08-14T13:35:22.682Z,51.07
2022-08-14T13:37:52.313Z,51.49
2022-08-14T13:40:26.529Z,53.04
2022-08-14T13:42:56.651Z,52.27
2022-08-14T13:45:33.629Z,53.17
2022-08-14T13:48:27.692Z,54.33
2022-08-14T13:50:59.276Z,52.25
2022-08-14T13:53:33.324Z,52.62
2022-08-14T13:56:00.514Z,52.66
2022-08-14T13:58:30.260Z,51.76
2022-08-14T14:01:00.837Z,52.35
2022-08-14T14:03:30.251Z,52.81
2022-08-14T14:05:58.920Z,51.80
2022-08-14T14:08:45.675Z,51.35
2022-08-14T14:11:16.059Z,51.37
2022-08-14T14:13:45.683Z,51.20
2022-08-14T14:16:15.535Z,52.30
2022-08-14T14:18:56.359Z,53.76
2022-08-14T14:21:28.744Z,52.89
2022-08-14T14:23:56.394Z,52.18
2022-08-14T14:26:24.717Z,52.97
2022-08-14T14:28:56.482Z,52.65
2022-08-14T14:31:29.579Z,52.51
2022-08-14T14:34:00.966Z,52.65
2022-08-14T14:36:35.565Z,52.49
2022-08-14T14:39:05.590Z,52.45
2022-08-14T14:41:38.554Z,52.55
2022-08-14T14:44:16.483Z,52.39
2022-08-14T14:46:50.782Z,50.95
2022-08-14T14:49:31.935Z,50.90
2022-08-14T14:52:17.172Z,49.76
2022-08-14T14:54:50.369Z,51.13
2022-08-14T14:57:18.587Z,51.65
2022-08-14T14:59:50.016Z,52.87
2022-08-14T15:02:29.234Z,52.25
2022-08-14T15:04:56.349Z,52.28
2022-08-14T15:07:23.205Z,52.57
2022-08-14T15:09:50.003Z,52.88
2022-08-14T15:12:56.571Z,52.37
2022-08-14T15:15:08.505Z,51.74
2022-08-14T15:17:41.668Z,53.11
2022-08-14T15:20:30.145Z,52.95
2022-08-14T15:23:11.856Z,54.71
2022-08-14T15:25:41.032Z,54.19
2022-08-14T15:28:11.671Z,55.70
2022-08-14T15:30:44.232Z,55.28
2022-08-14T15:33:14.258Z,56.06
2022-08-14T15:35:44.957Z,56.75
2022-08-14T15:38:17.538Z,55.96
2022-08-14T15:40:44.633Z,55.98
2022-08-14T15:43:23.239Z,54.88
2022-08-14T15:45:54.769Z,55.45
2022-08-14T15:48:23.320Z,55.98
2022-08-14T15:50:50.951Z,56.63
2022-08-14T15:53:18.325Z,56.77
2022-08-14T15:55:46.588Z,56.94
2022-08-14T15:58:14.714Z,57.11
2022-08-14T16:00:59.985Z,57.94
2022-08-14T16:03:37.178Z,58.74
2022-08-14T16:06:15.718Z,58.47
2022-08-14T16:08:46.433Z,57.93
2022-08-14T16:11:17.097Z,57.65
2022-08-14T16:13:45.211Z,59.29
2022-08-14T16:16:47.587Z,59.49
2022-08-14T16:19:10.045Z,60.42
2022-08-14T16:21:40.316Z,60.11
2022-08-14T16:24:27.076Z,61.70
2022-08-14T16:27:00.664Z,61.84
2022-08-14T16:29:30.166Z,62.49
2022-08-14T16:31:59.052Z,63.27
2022-08-14T16:34:44.118Z,63.21
2022-08-14T16:37:13.253Z,62.88
2022-08-14T16:39:41.899Z,62.60
2022-08-14T16:42:38.360Z,64.49
2022-08-14T16:44:58.224Z,65.28
2022-08-14T16:47:25.326Z,63.29
2022-08-14T16:50:04.311Z,63.90
2022-08-14T16:52:44.216Z,62.97
2022-08-14T16:55:13.895Z,64.16
2022-08-14T16:57:54.316Z,63.84
2022-08-14T17:00:44.274Z,64.42
2022-08-14T17:03:18.186Z,64.70
2022-08-14T17:05:46.849Z,65.36
2022-08-14T17:08:32.995Z,66.65
2022-08-14T17:11:10.139Z,66.49
2022-08-14T17:13:59.591Z,67.87
2022-08-14T17:16:37.401Z,68.08
2022-08-14T17:19:05.849Z,68.37
2022-08-14T17:21:41.770Z,68.69
2022-08-14T17:24:56.449Z,69.04
2022-08-14T17:27:03.871Z,69.24
2022-08-14T17:29:34.943Z,70.19
2022-08-14T17:32:27.986Z,70.82
2022-08-14T17:37:46.199Z,72.53
2022-08-14T17:40:19.530Z,72.90
2022-08-14T17:42:51.829Z,72.68
2022-08-14T17:45:43.686Z,73.18
2022-08-14T17:49:10.877Z,74.43
2022-08-14T17:51:23.238Z,75.11
2022-08-14T17:53:53.363Z,75.68
2022-08-14T17:56:20.954Z,75.95
2022-08-14T17:58:49.349Z,76.35
2022-08-14T18:01:17.439Z,77.11
2022-08-14T18:03:53.603Z,77.50
2022-08-14T18:06:39.552Z,78.96
2022-08-14T18:09:26.087Z,79.45
2022-08-14T18:11:57.925Z,81.01
2022-08-14T18:14:32.620Z,81.56
2022-08-14T18:17:13.676Z,81.62
2022-08-14T18:19:45.085Z,82.04
2022-08-14T18:22:24.058Z,83.06
2022-08-14T18:24:59.398Z,84.09
2022-08-14T18:27:43.872Z,84.50
2022-08-14T18:30:33.282Z,83.43
2022-08-14T18:32:59.699Z,79.04
2022-08-14T18:35:59.080Z,76.32
2022-08-14T18:38:46.107Z,74.68
2022-08-14T18:41:36.224Z,72.84
2022-08-14T18:44:10.634Z,69.77
2022-08-14T18:47:10.024Z,67.42
2022-08-14T18:50:26.406Z,64.60
2022-08-14T18:52:53.346Z,66.76
2022-08-14T18:55:20.958Z,70.97
2022-08-14T18:58:27.548Z,76.66
2022-08-14T19:00:56.245Z,81.55
2022-08-14T19:03:37.125Z,87.51
2022-08-14T19:06:07.005Z,89.85
2022-08-14T19:08:47.036Z,91.56
2022-08-14T19:11:32.414Z,94.45
2022-08-14T19:14:04.714Z,95.30
2022-08-14T19:16:34.865Z,96.08
2022-08-14T19:19:04.361Z,96.64
2022-08-14T19:21:43.553Z,97.25
2022-08-14T19:24:27.494Z,97.58
2022-08-14T19:27:19.463Z,97.40
2022-08-14T19:29:51.068Z,98.01
2022-08-14T19:32:36.491Z,98.43
2022-08-14T19:35:17.004Z,98.02
2022-08-14T19:37:55.202Z,98.21
2022-08-14T19:40:34.560Z,98.53
2022-08-14T19:43:06.525Z,100.00
2022-08-14T19:45:37.048Z,100.00
2022-08-14T19:48:10.529Z,100.00
2022-08-14T19:50:41.318Z,100.00
2022-08-14T19:53:17.304Z,100.00
2022-08-14T19:55:54.929Z,100.00
2022-08-14T19:58:28.004Z,100.00
2022-08-14T20:00:57.281Z,100.00
2022-08-14T20:03:24.871Z,100.00
2022-08-14T20:06:05.331Z,100.00
2022-08-14T20:10:58.500Z,100.00
2022-08-14T20:11:58.591Z,100.00
2022-08-14T20:14:29.639Z,100.00
2022-08-14T20:17:05.527Z,100.00
2022-08-14T20:19:38.044Z,100.00
2022-08-14T20:22:36.225Z,100.00
2022-08-14T20:25:11.644Z,100.00
2022-08-14T20:27:41.055Z,100.00
2022-08-14T20:30:33.567Z,100.00
2022-08-14T20:33:07.687Z,100.00
2022-08-14T20:35:43.665Z,100.00
2022-08-14T20:38:31.189Z,100.00
2022-08-14T20:41:09.486Z,100.00
2022-08-14T20:43:59.417Z,100.00
2022-08-14T20:46:31.858Z,100.00
2022-08-14T20:48:59.621Z,100.00
2022-08-14T20:51:43.385Z,100.00
2022-08-14T20:54:21.563Z,100.00
2022-08-14T20:57:43.644Z,100.00
2022-08-14T21:00:12.041Z,100.00
2022-08-14T21:02:50.012Z,100.00
2022-08-14T21:05:22.515Z,100.00
2022-08-14T21:08:07.877Z,100.00
2022-08-14T21:10:44.106Z,100.00
2022-08-14T21:14:09.074Z,100.00
2022-08-14T21:16:03.058Z,100.00
2022-08-14T21:18:35.172Z,100.00
2022-08-14T21:21:18.076Z,100.00
2022-08-14T21:23:54.962Z,100.00
2022-08-14T21:26:51.201Z,100.00
2022-08-14T21:29:11.387Z,100.00
2022-08-14T21:31:38.965Z,100.00
2022-08-14T21:34:27.528Z,100.00
2022-08-14T21:36:54.632Z,100.00
2022-08-14T21:39:24.347Z,100.00
2022-08-14T21:41:58.421Z,100.00
2022-08-14T21:44:42.600Z,100.00
2022-08-14T21:47:10.143Z,100.00
2022-08-14T21:49:39.096Z,100.00
2022-08-14T21:52:51.904Z,100.00
2022-08-14T21:55:01.922Z,100.00
2022-08-14T21:58:46.371Z,100.00
2022-08-14T22:00:36.695Z,100.00
2022-08-14T22:03:09.829Z,100.00
2022-08-14T22:05:39.096Z,100.00
2022-08-14T22:08:06.692Z,100.00
2022-08-14T22:10:35.014Z,100.00
2022-08-14T22:13:02.106Z,100.00
2022-08-14T22:15:29.916Z,100.00
2022-08-14T22:17:57.759Z,100.00
2022-08-14T22:20:28.768Z,100.00
2022-08-14T22:22:56.912Z,100.00
2022-08-14T22:25:33.330Z,100.00
2022-08-14T22:28:01.610Z,100.00
2022-08-14T22:30:28.145Z,100.00
2022-08-14T22:32:56.825Z,100.00
2022-08-14T22:35:25.568Z,100.00
2022-08-14T22:38:36.549Z,100.00
2022-08-14T22:41:14.885Z,100.00
2022-08-14T22:43:27.568Z,100.00
2022-08-14T22:45:58.272Z,100.00
2022-08-14T22:48:29.696Z,100.00
2022-08-14T22:50:56.336Z,100.00
2022-08-14T22:53:24.072Z,100.00
2022-08-14T22:55:56.686Z,100.00
2022-08-14T22:58:31.440Z,100.00
2022-08-14T23:01:01.041Z,100.00
2022-08-14T23:03:27.693Z,100.00
2022-08-14T23:05:55.531Z,100.00
2022-08-14T23:08:59.739Z,100.00
2022-08-14T23:11:10.335Z,100.00
2022-08-14T23:13:39.171Z,100.00
2022-08-14T23:16:06.887Z,100.00
2022-08-14T23:18:34.561Z,100.00
2022-08-14T23:21:01.577Z,100.00
2022-08-14T23:23:28.049Z,100.00
2022-08-14T23:26:00.265Z,100.00
2022-08-14T23:28:58.104Z,100.00
2022-08-14T23:31:34.346Z,100.00
2022-08-14T23:34:06.752Z,100.00
2022-08-14T23:36:37.853Z,100.00
2022-08-14T23:39:21.061Z,100.00
2022-08-14T23:41:52.698Z,100.00
2022-08-14T23:44:22.129Z,100.00
2022-08-14T23:46:49.535Z,100.00
2022-08-14T23:49:21.259Z,100.00
2022-08-14T23:52:49.444Z,100.00
2022-08-14T23:54:49.379Z,100.00
2022-08-14T23:57:19.339Z,100.00
2022-08-14T23:59:54.696Z,100.00
